createdAt,value
2022-12-22T00:01:09.597Z,90.20
2022-12-22T00:03:34.410Z,90.50
2022-12-22T00:06:00.011Z,90.70
2022-12-22T00:08:23.877Z,90.50
2022-12-22T00:10:46.828Z,90.50
2022-12-22T00:13:10.552Z,90.40
2022-12-22T00:15:36.177Z,90.30
2022-12-22T00:18:00.142Z,91.00
2022-12-22T00:20:31.699Z,91.30
2022-12-22T00:22:57.267Z,91.70
2022-12-22T00:25:20.755Z,92.10
2022-12-22T00:27:49.248Z,92.20
2022-12-22T00:30:12.575Z,92.20
2022-12-22T00:32:35.925Z,92.40
2022-12-22T00:35:01.537Z,92.60
2022-12-22T00:37:25.150Z,92.60
2022-12-22T00:39:50.184Z,92.60
2022-12-22T00:42:13.858Z,92.50
2022-12-22T00:44:36.974Z,92.70
2022-12-22T00:47:02.382Z,92.60
2022-12-22T00:49:25.589Z,92.20
2022-12-22T00:51:50.781Z,92.10
2022-12-22T00:54:14.630Z,91.90
2022-12-22T00:56:39.767Z,91.70
2022-12-22T00:59:03.034Z,91.50
2022-12-22T01:01:26.253Z,91.60
2022-12-22T01:03:50.032Z,90.60
2022-12-22T01:06:13.133Z,90.30
2022-12-22T01:08:37.295Z,89.90
2022-12-22T01:11:01.063Z,89.70
2022-12-22T01:13:31.025Z,89.30
2022-12-22T01:15:54.277Z,88.50
2022-12-22T01:18:17.756Z,87.90
2022-12-22T01:20:41.157Z,87.00
2022-12-22T01:23:04.797Z,86.10
2022-12-22T01:25:33.157Z,85.90
2022-12-22T01:27:56.774Z,85.70
2022-12-22T01:30:21.870Z,85.40
2022-12-22T01:32:45.539Z,85.70
2022-12-22T01:35:08.489Z,85.10
2022-12-22T01:37:31.917Z,85.10
2022-12-22T01:39:55.216Z,84.20
2022-12-22T01:42:18.674Z,83.20
2022-12-22T01:44:41.834Z,82.90
2022-12-22T01:47:07.499Z,82.80
2022-12-22T01:49:33.636Z,82.20
2022-12-22T01:51:57.187Z,81.00
2022-12-22T01:54:21.571Z,80.00
2022-12-22T01:56:45.188Z,79.20
2022-12-22T01:59:12.165Z,79.10
2022-12-22T02:01:35.605Z,77.50
2022-12-22T02:04:00.758Z,77.70
2022-12-22T02:06:34.256Z,77.30
2022-12-22T02:09:01.962Z,77.40
2022-12-22T02:11:45.136Z,75.60
2022-12-22T02:14:20.766Z,75.10
2022-12-22T02:16:52.482Z,74.80
2022-12-22T02:19:22.661Z,74.70
2022-12-22T02:21:49.300Z,74.10
2022-12-22T02:24:38.106Z,73.60
2022-12-22T02:27:07.359Z,73.50
2022-12-22T02:29:31.844Z,73.60
2022-12-22T02:31:57.510Z,73.30
2022-12-22T02:34:20.511Z,73.10
2022-12-22T02:36:51.398Z,70.60
2022-12-22T02:39:22.386Z,70.70
2022-12-22T02:41:55.578Z,70.20
2022-12-22T02:44:38.559Z,69.40
2022-12-22T02:47:06.747Z,68.10
2022-12-22T02:49:37.252Z,68.70
2022-12-22T02:52:05.636Z,68.30
2022-12-22T02:54:29.507Z,67.90
2022-12-22T02:56:53.425Z,67.60
2022-12-22T02:59:17.100Z,67.70
2022-12-22T03:01:42.892Z,67.10
2022-12-22T03:04:06.993Z,67.30
2022-12-22T03:06:30.512Z,66.20
2022-12-22T03:08:53.765Z,66.50
2022-12-22T03:11:17.535Z,66.10
2022-12-22T03:13:40.946Z,64.40
2022-12-22T03:16:04.613Z,65.40
2022-12-22T03:18:31.556Z,65.90
2022-12-22T03:20:55.326Z,66.10
2022-12-22T03:23:24.219Z,66.10
2022-12-22T03:25:47.835Z,65.10
2022-12-22T03:27:54.607Z,65.20
2022-12-22T03:30:01.790Z,64.60
2022-12-22T03:32:08.817Z,64.30
2022-12-22T03:34:17.637Z,64.10
2022-12-22T03:36:24.425Z,64.20
2022-12-22T03:38:32.155Z,64.40
2022-12-22T03:40:38.978Z,64.40
2022-12-22T03:43:02.166Z,62.80
2022-12-22T03:45:26.261Z,63.10
2022-12-22T03:47:35.183Z,62.80
2022-12-22T03:49:43.697Z,63.20
2022-12-22T03:51:52.519Z,63.40
2022-12-22T03:53:59.237Z,63.30
2022-12-22T03:56:08.155Z,63.40
2022-12-22T03:58:17.970Z,63.40
2022-12-22T04:00:25.601Z,63.10
2022-12-22T04:02:32.520Z,61.50
2022-12-22T04:04:39.753Z,60.80
2022-12-22T04:06:49.502Z,60.80
2022-12-22T04:08:56.375Z,61.40
2022-12-22T04:11:20.090Z,60.90
2022-12-22T04:13:26.962Z,60.80
2022-12-22T04:15:35.199Z,60.70
2022-12-22T04:17:42.356Z,60.40
2022-12-22T04:19:49.222Z,58.90
2022-12-22T04:21:58.282Z,59.30
2022-12-22T04:24:05.073Z,58.60
2022-12-22T04:26:12.198Z,59.00
2022-12-22T04:28:18.901Z,57.60
2022-12-22T04:30:26.038Z,58.00
2022-12-22T04:32:32.723Z,58.10
2022-12-22T04:34:39.701Z,57.80
2022-12-22T04:36:46.627Z,57.80
2022-12-22T04:38:55.529Z,57.80
2022-12-22T04:41:02.271Z,57.20
2022-12-22T04:43:09.350Z,57.20
2022-12-22T04:45:16.220Z,56.80
2022-12-22T04:47:23.519Z,56.40
2022-12-22T04:49:30.335Z,56.50
2022-12-22T04:51:37.619Z,56.80
2022-12-22T04:53:44.441Z,55.60
2022-12-22T04:55:55.101Z,56.20
2022-12-22T04:58:01.975Z,55.50
2022-12-22T05:00:10.635Z,55.60
2022-12-22T05:02:17.896Z,55.50
2022-12-22T05:04:24.748Z,55.00
2022-12-22T05:06:31.824Z,55.40
2022-12-22T05:08:39.060Z,55.10
2022-12-22T05:10:46.139Z,55.50
2022-12-22T05:13:00.283Z,55.70
2022-12-22T05:15:07.730Z,55.20
2022-12-22T05:17:14.544Z,55.20
2022-12-22T05:19:24.864Z,55.10
2022-12-22T05:21:34.231Z,55.40
2022-12-22T05:23:41.365Z,54.80
2022-12-22T05:25:48.290Z,54.90
2022-12-22T05:27:56.902Z,54.90
2022-12-22T05:30:03.776Z,55.00
2022-12-22T05:32:10.857Z,55.00
2022-12-22T05:34:17.628Z,54.00
2022-12-22T05:36:24.706Z,53.20
2022-12-22T05:38:32.213Z,53.70
2022-12-22T05:40:39.478Z,54.10
2022-12-22T05:42:46.353Z,53.70
2022-12-22T05:44:55.174Z,53.40
2022-12-22T05:47:01.949Z,53.10
2022-12-22T05:49:08.923Z,52.80
2022-12-22T05:51:15.833Z,53.00
2022-12-22T05:53:22.980Z,53.10
2022-12-22T05:55:29.750Z,52.60
2022-12-22T05:57:36.884Z,53.20
2022-12-22T05:59:43.842Z,52.60
2022-12-22T06:01:52.676Z,52.60
2022-12-22T06:04:00.652Z,53.00
2022-12-22T06:06:08.784Z,52.80
2022-12-22T06:08:15.759Z,52.00
2022-12-22T06:10:23.103Z,52.10
2022-12-22T06:12:29.915Z,52.50
2022-12-22T06:14:37.200Z,51.80
2022-12-22T06:16:44.024Z,51.70
2022-12-22T06:18:52.691Z,51.80
2022-12-22T06:21:00.122Z,51.90
2022-12-22T06:23:07.917Z,52.70
2022-12-22T06:25:18.521Z,52.40
2022-12-22T06:27:26.548Z,52.50
2022-12-22T06:29:33.309Z,51.90
2022-12-22T06:31:40.469Z,51.90
2022-12-22T06:33:47.977Z,52.10
2022-12-22T06:35:58.994Z,52.50
2022-12-22T06:38:06.234Z,52.30
2022-12-22T06:40:14.204Z,50.50
2022-12-22T06:42:37.339Z,50.70
2022-12-22T06:44:44.370Z,50.40
2022-12-22T06:46:51.216Z,50.70
2022-12-22T06:48:58.684Z,50.70
2022-12-22T06:51:07.347Z,51.20
2022-12-22T06:53:14.901Z,51.30
2022-12-22T06:55:21.716Z,51.70
2022-12-22T06:57:29.670Z,50.60
2022-12-22T06:59:36.687Z,50.50
2022-12-22T07:01:43.780Z,50.60
2022-12-22T07:03:50.716Z,51.10
2022-12-22T07:05:57.794Z,51.10
2022-12-22T07:08:09.125Z,51.20
2022-12-22T07:10:16.904Z,51.20
2022-12-22T07:12:24.231Z,51.50
2022-12-22T07:14:31.001Z,51.40
2022-12-22T07:16:38.229Z,51.60
2022-12-22T07:18:46.388Z,51.00
2022-12-22T07:20:53.217Z,51.00
2022-12-22T07:23:00.242Z,51.60
2022-12-22T07:25:09.677Z,51.50
2022-12-22T07:27:16.889Z,51.20
2022-12-22T07:29:23.734Z,51.40
2022-12-22T07:31:30.786Z,51.70
2022-12-22T07:33:37.731Z,51.30
2022-12-22T07:35:44.725Z,51.00
2022-12-22T07:37:52.159Z,50.80
2022-12-22T07:39:59.175Z,51.10
2022-12-22T07:42:24.451Z,50.60
2022-12-22T07:44:31.513Z,50.80
2022-12-22T07:46:40.965Z,50.70
2022-12-22T07:49:04.873Z,51.20
2022-12-22T07:51:12.770Z,51.50
2022-12-22T07:53:20.002Z,51.60
2022-12-22T07:55:27.236Z,50.70
2022-12-22T07:57:36.925Z,50.70
2022-12-22T07:59:43.697Z,51.00
2022-12-22T08:01:50.865Z,50.70
2022-12-22T08:03:58.009Z,50.40
2022-12-22T08:06:09.646Z,50.90
2022-12-22T08:08:16.520Z,49.80
2022-12-22T08:10:23.906Z,50.30
2022-12-22T08:12:31.030Z,50.30
2022-12-22T08:14:39.710Z,50.40
2022-12-22T08:16:46.608Z,50.00
2022-12-22T08:18:54.117Z,50.50
2022-12-22T08:21:00.945Z,50.90
2022-12-22T08:23:07.926Z,50.80
2022-12-22T08:25:15.202Z,50.90
2022-12-22T08:27:26.634Z,51.10
2022-12-22T08:29:36.939Z,50.90
2022-12-22T08:31:47.190Z,50.90
2022-12-22T08:33:54.117Z,51.20
2022-12-22T08:36:07.736Z,51.20
2022-12-22T08:38:16.313Z,51.90
2022-12-22T08:40:26.317Z,52.60
2022-12-22T08:42:33.552Z,53.10
2022-12-22T08:44:41.801Z,53.50
2022-12-22T08:46:50.479Z,51.20
2022-12-22T08:48:57.599Z,50.60
2022-12-22T08:51:04.420Z,50.80
2022-12-22T08:53:30.061Z,51.10
2022-12-22T08:55:39.007Z,51.50
2022-12-22T08:57:49.342Z,51.20
2022-12-22T09:00:00.811Z,51.90
2022-12-22T09:02:10.040Z,53.50
2022-12-22T09:04:18.030Z,53.40
2022-12-22T09:06:27.653Z,53.40
2022-12-22T09:08:35.205Z,52.50
2022-12-22T09:10:44.795Z,52.10
2022-12-22T09:12:52.416Z,52.50
2022-12-22T09:14:59.640Z,52.70
2022-12-22T09:17:08.285Z,53.30
2022-12-22T09:19:15.465Z,53.40
2022-12-22T09:21:22.701Z,53.60
2022-12-22T09:23:29.591Z,53.80
2022-12-22T09:25:38.561Z,53.30
2022-12-22T09:27:45.369Z,53.20
2022-12-22T09:29:53.371Z,53.50
2022-12-22T09:32:00.291Z,53.70
2022-12-22T09:34:15.144Z,53.90
2022-12-22T09:36:26.806Z,54.00
2022-12-22T09:38:33.884Z,54.10
2022-12-22T09:40:41.004Z,54.20
2022-12-22T09:42:48.200Z,54.30
2022-12-22T09:44:55.572Z,54.30
2022-12-22T09:47:04.665Z,54.30
2022-12-22T09:49:17.768Z,54.10
2022-12-22T09:51:27.333Z,54.30
2022-12-22T09:53:35.307Z,55.00
2022-12-22T09:55:45.286Z,55.00
2022-12-22T09:57:53.440Z,55.10
2022-12-22T10:00:04.934Z,55.30
2022-12-22T10:02:32.004Z,55.50
2022-12-22T10:05:04.050Z,55.60
2022-12-22T10:07:24.059Z,55.20
2022-12-22T10:09:51.801Z,55.50
2022-12-22T10:12:00.618Z,55.90
2022-12-22T10:14:07.751Z,56.20
2022-12-22T10:16:22.737Z,56.40
2022-12-22T10:18:31.904Z,56.70
2022-12-22T10:20:41.040Z,56.90
2022-12-22T10:22:54.778Z,57.20
2022-12-22T10:25:03.842Z,57.40
2022-12-22T10:27:12.143Z,58.10
2022-12-22T10:29:21.728Z,59.00
2022-12-22T10:31:31.450Z,59.10
2022-12-22T10:33:46.160Z,59.20
2022-12-22T10:35:58.425Z,59.30
2022-12-22T10:38:21.396Z,59.80
2022-12-22T10:40:32.200Z,61.00
2022-12-22T10:42:39.276Z,61.10
2022-12-22T10:44:51.270Z,62.60
2022-12-22T10:46:59.428Z,63.60
2022-12-22T10:49:22.440Z,63.30
2022-12-22T10:51:30.836Z,62.40
2022-12-22T10:53:59.151Z,62.70
2022-12-22T10:56:10.799Z,63.50
2022-12-22T10:58:25.613Z,63.30
2022-12-22T11:00:38.065Z,63.20
2022-12-22T11:03:24.411Z,64.80
2022-12-22T11:05:36.054Z,67.30
2022-12-22T11:07:46.369Z,68.20
2022-12-22T11:09:54.008Z,69.20
2022-12-22T11:12:06.298Z,69.80
2022-12-22T11:14:20.547Z,70.20
2022-12-22T11:16:32.631Z,69.80
2022-12-22T11:18:55.905Z,70.30
2022-12-22T11:21:09.549Z,71.10
2022-12-22T11:23:28.901Z,70.80
2022-12-22T11:25:45.866Z,69.60
2022-12-22T11:28:09.171Z,69.10
2022-12-22T11:30:19.481Z,70.20
2022-12-22T11:32:42.171Z,70.50
2022-12-22T11:34:59.337Z,71.90
2022-12-22T11:37:16.811Z,72.30
2022-12-22T11:39:39.968Z,72.60
2022-12-22T11:42:00.001Z,72.80
2022-12-22T11:44:33.909Z,72.10
2022-12-22T11:46:49.474Z,71.90
2022-12-22T11:49:31.790Z,72.00
2022-12-22T11:51:45.424Z,72.10
2022-12-22T11:54:15.350Z,72.10
2022-12-22T11:56:27.288Z,72.00
2022-12-22T11:58:51.976Z,72.80
2022-12-22T12:01:20.396Z,73.80
2022-12-22T12:04:05.520Z,74.30
2022-12-22T12:06:29.500Z,74.70
2022-12-22T12:08:47.493Z,74.70
2022-12-22T12:11:01.073Z,74.50
2022-12-22T12:13:26.424Z,74.90
2022-12-22T12:15:39.011Z,74.80
2022-12-22T12:17:59.935Z,75.30
2022-12-22T12:20:31.695Z,75.70
2022-12-22T12:22:54.849Z,76.60
2022-12-22T12:25:12.578Z,76.60
2022-12-22T12:27:33.481Z,75.80
2022-12-22T12:30:06.227Z,76.10
2022-12-22T12:32:22.304Z,76.50
2022-12-22T12:34:30.509Z,76.70
2022-12-22T12:36:45.933Z,76.60
2022-12-22T12:39:08.070Z,76.10
2022-12-22T12:41:23.954Z,76.10
2022-12-22T12:43:31.699Z,76.60
2022-12-22T12:45:42.421Z,77.00
2022-12-22T12:47:49.387Z,76.90
2022-12-22T12:49:58.415Z,76.80
2022-12-22T12:52:06.114Z,77.10
2022-12-22T12:54:42.790Z,77.40
2022-12-22T12:57:01.588Z,78.20
2022-12-22T12:59:10.139Z,78.10
2022-12-22T13:01:57.194Z,78.10
2022-12-22T13:04:05.899Z,78.30
2022-12-22T13:06:33.957Z,78.00
2022-12-22T13:14:53.701Z,79.40
2022-12-22T13:17:36.864Z,79.60
2022-12-22T13:19:44.076Z,79.70
2022-12-22T13:21:53.581Z,79.40
2022-12-22T13:24:25.638Z,79.70
2022-12-22T13:26:39.002Z,80.10
2022-12-22T13:28:47.783Z,79.90
2022-12-22T13:30:59.941Z,79.90
2022-12-22T13:33:05.910Z,79.90
2022-12-22T13:35:31.477Z,80.70
2022-12-22T13:37:44.405Z,80.10
2022-12-22T13:40:15.807Z,80.00
2022-12-22T13:42:24.300Z,79.50
2022-12-22T13:44:34.466Z,79.40
2022-12-22T13:46:42.310Z,79.90
2022-12-22T13:48:52.876Z,80.60
2022-12-22T13:51:02.261Z,80.50
2022-12-22T13:53:18.612Z,80.50
2022-12-22T13:55:39.614Z,80.20
2022-12-22T13:57:50.985Z,80.80
2022-12-22T14:00:02.007Z,81.10
2022-12-22T14:02:20.112Z,81.00
2022-12-22T14:04:27.834Z,81.00
2022-12-22T14:06:37.226Z,81.10
2022-12-22T14:08:44.256Z,80.90
2022-12-22T14:10:51.606Z,81.00
2022-12-22T14:13:00.518Z,80.80
2022-12-22T14:15:11.793Z,81.00
2022-12-22T14:17:25.835Z,81.30
2022-12-22T14:19:37.113Z,81.70
2022-12-22T14:21:44.755Z,81.70
2022-12-22T14:23:51.627Z,81.80
2022-12-22T14:25:59.322Z,81.80
2022-12-22T14:28:10.088Z,81.90
2022-12-22T14:30:21.775Z,81.70
2022-12-22T14:32:42.886Z,81.50
2022-12-22T14:34:57.445Z,81.60
2022-12-22T14:37:05.182Z,81.60
2022-12-22T14:39:24.726Z,81.80
2022-12-22T14:41:46.274Z,81.90
2022-12-22T14:43:55.090Z,82.10
2022-12-22T14:46:10.363Z,82.30
2022-12-22T14:48:26.346Z,82.80
2022-12-22T14:50:33.533Z,82.90
2022-12-22T14:52:47.006Z,82.70
2022-12-22T14:54:56.197Z,82.60
2022-12-22T14:57:14.922Z,82.70
2022-12-22T14:59:32.378Z,82.80
2022-12-22T15:01:39.827Z,83.00
2022-12-22T15:03:47.628Z,82.60
2022-12-22T15:05:55.649Z,82.50
2022-12-22T15:08:08.081Z,82.70
2022-12-22T15:10:16.941Z,82.80
2022-12-22T15:12:24.327Z,83.40
2022-12-22T15:14:38.895Z,83.80
2022-12-22T15:16:47.021Z,84.40
2022-12-22T15:18:55.224Z,84.90
2022-12-22T15:21:02.366Z,85.60
2022-12-22T15:23:14.922Z,85.80
2022-12-22T15:25:23.943Z,85.90
2022-12-22T15:27:31.376Z,86.60
2022-12-22T15:29:39.942Z,87.10
2022-12-22T15:31:47.434Z,87.20
2022-12-22T15:33:55.278Z,87.30
2022-12-22T15:36:02.459Z,87.50
2022-12-22T15:38:15.227Z,87.70
2022-12-22T15:40:24.420Z,87.40
2022-12-22T15:42:31.119Z,87.10
2022-12-22T15:44:39.839Z,87.40
2022-12-22T15:46:54.344Z,87.60
2022-12-22T15:49:01.931Z,87.80
2022-12-22T15:51:11.417Z,87.60
2022-12-22T15:53:20.756Z,87.50
2022-12-22T15:55:28.009Z,87.40
2022-12-22T15:57:35.267Z,87.30
2022-12-22T15:59:43.680Z,87.20
2022-12-22T16:01:58.355Z,87.00
2022-12-22T16:04:07.860Z,86.90
2022-12-22T16:06:17.314Z,86.70
2022-12-22T16:08:32.791Z,86.50
2022-12-22T16:10:40.116Z,86.60
2022-12-22T16:12:50.984Z,86.50
2022-12-22T16:15:01.344Z,86.70
2022-12-22T16:17:08.217Z,86.80
2022-12-22T16:19:18.235Z,86.80
2022-12-22T16:21:32.151Z,86.90
2022-12-22T16:23:41.024Z,86.80
2022-12-22T16:25:49.081Z,86.70
2022-12-22T16:27:56.451Z,86.60
2022-12-22T16:30:05.149Z,86.60
2022-12-22T16:32:20.126Z,86.50
2022-12-22T16:34:26.967Z,86.60
2022-12-22T16:36:33.943Z,86.70
2022-12-22T16:38:41.188Z,86.80
2022-12-22T16:40:50.228Z,86.90
2022-12-22T16:45:30.274Z,86.90
2022-12-22T16:47:39.597Z,87.00
2022-12-22T16:49:48.673Z,87.30
2022-12-22T16:51:56.343Z,87.00
2022-12-22T16:54:03.925Z,87.00
2022-12-22T16:56:13.960Z,88.00
2022-12-22T16:58:22.229Z,88.20
2022-12-22T17:00:32.629Z,88.30
2022-12-22T17:02:39.883Z,89.00
2022-12-22T17:04:46.782Z,88.60
2022-12-22T17:06:54.063Z,87.70
2022-12-22T17:09:01.299Z,86.60
2022-12-22T17:11:11.863Z,85.00
2022-12-22T17:13:19.413Z,84.50
2022-12-22T17:15:26.728Z,83.80
2022-12-22T17:17:41.704Z,83.10
2022-12-22T17:19:49.388Z,82.40
2022-12-22T17:21:56.390Z,82.00
2022-12-22T17:24:05.749Z,81.90
2022-12-22T17:26:14.112Z,81.60
2022-12-22T17:28:21.174Z,81.00
2022-12-22T17:30:29.549Z,80.70
2022-12-22T17:32:38.378Z,80.40
2022-12-22T17:34:45.135Z,80.30
2022-12-22T17:36:53.407Z,79.90
2022-12-22T17:39:00.742Z,79.80
2022-12-22T17:41:07.809Z,79.70
2022-12-22T17:43:16.906Z,80.00
2022-12-22T17:45:24.269Z,80.00
2022-12-22T17:47:35.958Z,79.70
2022-12-22T17:49:49.752Z,79.80
2022-12-22T17:51:56.617Z,79.80
2022-12-22T17:54:03.599Z,80.00
2022-12-22T17:56:12.472Z,79.80
2022-12-22T17:58:20.163Z,80.70
2022-12-22T18:00:29.290Z,80.70
2022-12-22T18:02:36.649Z,81.00
2022-12-22T18:04:43.599Z,81.50
2022-12-22T18:06:52.577Z,81.60
2022-12-22T18:09:00.319Z,81.60
2022-12-22T18:11:07.395Z,81.70
2022-12-22T18:13:19.492Z,82.10
2022-12-22T18:15:28.160Z,82.00
2022-12-22T18:17:36.191Z,82.40
2022-12-22T18:19:43.394Z,82.40
2022-12-22T18:21:52.214Z,82.50
2022-12-22T18:23:59.530Z,82.50
2022-12-22T18:26:09.237Z,82.60
2022-12-22T18:28:18.366Z,82.30
2022-12-22T18:30:27.545Z,81.70
2022-12-22T18:32:34.571Z,81.30
2022-12-22T18:34:42.316Z,81.40
2022-12-22T18:36:50.931Z,82.00
2022-12-22T18:38:57.911Z,83.00
2022-12-22T18:41:05.208Z,83.40
2022-12-22T18:43:16.624Z,83.60
2022-12-22T18:45:25.032Z,83.60
2022-12-22T18:47:31.759Z,83.70
2022-12-22T18:49:38.724Z,83.80
2022-12-22T18:51:46.886Z,83.70
2022-12-22T18:53:58.169Z,83.80
2022-12-22T18:56:04.986Z,83.50
2022-12-22T18:58:16.160Z,83.50
2022-12-22T19:00:24.623Z,83.30
2022-12-22T19:02:32.863Z,83.30
2022-12-22T19:04:39.705Z,83.00
2022-12-22T19:06:46.526Z,82.70
2022-12-22T19:08:55.038Z,82.80
2022-12-22T19:11:03.622Z,82.90
2022-12-22T19:13:18.832Z,82.80
2022-12-22T19:15:28.975Z,82.90
2022-12-22T19:17:36.155Z,82.80
2022-12-22T19:19:42.827Z,83.00
2022-12-22T19:21:51.338Z,82.90
2022-12-22T19:23:59.798Z,82.70
2022-12-22T19:26:09.107Z,81.90
2022-12-22T19:28:25.785Z,82.10
2022-12-22T19:30:33.130Z,82.20
2022-12-22T19:32:44.243Z,82.50
2022-12-22T19:34:51.479Z,82.60
2022-12-22T19:36:58.247Z,82.20
2022-12-22T19:39:07.081Z,81.80
2022-12-22T19:41:30.521Z,82.00
2022-12-22T19:43:37.357Z,82.20
2022-12-22T19:45:44.203Z,82.50
2022-12-22T19:47:51.565Z,82.80
2022-12-22T19:49:58.336Z,83.00
2022-12-22T19:52:05.262Z,83.40
2022-12-22T19:54:13.943Z,83.40
2022-12-22T19:56:25.921Z,83.40
2022-12-22T19:58:38.995Z,82.70
2022-12-22T20:00:46.471Z,82.50
2022-12-22T20:02:56.142Z,82.90
2022-12-22T20:05:03.506Z,82.50
2022-12-22T20:07:17.449Z,82.80
2022-12-22T20:09:26.123Z,83.10
2022-12-22T20:11:33.193Z,83.70
2022-12-22T20:13:40.170Z,83.80
2022-12-22T20:15:47.301Z,84.00
2022-12-22T20:17:55.862Z,83.70
2022-12-22T20:20:02.590Z,83.70
2022-12-22T20:22:09.665Z,83.80
2022-12-22T20:24:25.550Z,84.10
2022-12-22T20:26:32.731Z,84.30
2022-12-22T20:28:42.075Z,84.40
2022-12-22T20:30:49.665Z,84.80
2022-12-22T20:32:56.733Z,85.10
2022-12-22T20:35:03.715Z,85.20
2022-12-22T20:37:15.298Z,85.10
2022-12-22T20:39:22.586Z,85.00
2022-12-22T20:41:31.533Z,85.20
2022-12-22T20:43:39.500Z,85.40
2022-12-22T20:45:47.732Z,85.40
2022-12-22T20:47:55.965Z,85.60
2022-12-22T20:50:03.259Z,85.60
2022-12-22T20:52:10.634Z,85.70
2022-12-22T20:54:17.930Z,85.20
2022-12-22T20:56:27.254Z,85.10
2022-12-22T20:58:38.223Z,85.20
2022-12-22T21:00:45.251Z,85.20
2022-12-22T21:02:52.209Z,85.40
2022-12-22T21:04:59.304Z,86.10
2022-12-22T21:07:06.030Z,86.90
2022-12-22T21:09:16.997Z,87.50
2022-12-22T21:11:23.979Z,88.00
2022-12-22T21:13:31.104Z,88.40
2022-12-22T21:15:39.820Z,88.10
2022-12-22T21:17:47.508Z,87.90
2022-12-22T21:19:57.154Z,88.10
2022-12-22T21:22:05.104Z,88.70
2022-12-22T21:24:11.873Z,89.10
2022-12-22T21:26:24.073Z,89.90
2022-12-22T21:28:34.025Z,90.30
2022-12-22T21:30:42.701Z,90.60
2022-12-22T21:32:49.711Z,90.70
2022-12-22T21:34:57.624Z,90.60
2022-12-22T21:37:06.946Z,90.40
2022-12-22T21:39:25.387Z,90.40
2022-12-22T21:41:45.284Z,89.80
2022-12-22T21:43:52.401Z,89.60
2022-12-22T21:46:00.844Z,89.00
2022-12-22T21:48:08.556Z,88.40
2022-12-22T21:50:24.492Z,88.40
2022-12-22T21:52:31.422Z,88.70
2022-12-22T21:54:38.138Z,89.50
2022-12-22T21:56:45.220Z,89.70
2022-12-22T21:58:51.988Z,89.60
2022-12-22T22:01:00.670Z,90.10
2022-12-22T22:03:08.612Z,90.30
2022-12-22T22:05:31.120Z,90.50
2022-12-22T22:07:38.335Z,90.40
2022-12-22T22:09:45.152Z,90.60
2022-12-22T22:12:08.360Z,90.80
2022-12-22T22:14:15.187Z,90.80
2022-12-22T22:16:24.046Z,90.70
2022-12-22T22:18:30.774Z,90.40
2022-12-22T22:20:37.595Z,90.00
2022-12-22T22:22:45.138Z,89.60
2022-12-22T22:24:52.634Z,89.70
2022-12-22T22:26:59.553Z,89.70
2022-12-22T22:29:06.433Z,90.30
2022-12-22T22:31:13.957Z,90.50
2022-12-22T22:33:22.428Z,90.90
2022-12-22T22:35:30.581Z,91.10
2022-12-22T22:37:38.531Z,91.40
2022-12-22T22:39:45.764Z,91.20
2022-12-22T22:41:52.512Z,90.80
2022-12-22T22:43:59.669Z,90.50
2022-12-22T22:46:06.543Z,90.70
2022-12-22T22:48:24.168Z,90.70
2022-12-22T22:50:30.939Z,91.10
2022-12-22T22:52:38.223Z,91.30
2022-12-22T22:54:45.198Z,91.20
2022-12-22T22:56:52.180Z,90.90
2022-12-22T22:58:58.951Z,90.60
2022-12-22T23:01:08.854Z,90.30
2022-12-22T23:03:16.568Z,90.20
2022-12-22T23:05:25.459Z,90.50
2022-12-22T23:07:32.191Z,90.00
2022-12-22T23:09:39.413Z,89.80
2022-12-22T23:11:46.196Z,89.90
2022-12-22T23:13:55.777Z,89.60
2022-12-22T23:16:03.991Z,88.80
2022-12-22T23:18:11.108Z,88.90
2022-12-22T23:20:18.037Z,88.80
2022-12-22T23:22:26.648Z,88.40
2022-12-22T23:24:33.831Z,88.20
2022-12-22T23:26:41.270Z,88.00
2022-12-22T23:28:48.047Z,88.20
2022-12-22T23:30:56.014Z,88.50
2022-12-22T23:33:02.815Z,88.70
2022-12-22T23:35:10.156Z,89.20
2022-12-22T23:37:19.497Z,89.30
2022-12-22T23:39:28.759Z,89.30
2022-12-22T23:41:35.545Z,89.40
2022-12-22T23:43:42.508Z,89.30
2022-12-22T23:45:49.230Z,89.10
2022-12-22T23:47:56.158Z,88.80
2022-12-22T23:50:02.940Z,88.40
2022-12-22T23:52:09.954Z,88.90
2022-12-22T23:54:16.729Z,89.10
2022-12-22T23:56:25.756Z,89.20
2022-12-22T23:58:32.777Z,89.80
